sensor_id;sensor_type;location;lat;lon;timestamp;P1;durP1;ratioP1;P2;durP2;ratioP2
2488;SDS011;1255;48.716;9.124;2024-02-26T00:02:08;2.22;;;1.70;;
2488;SDS011;1255;48.716;9.124;2024-02-26T00:04:35;1.73;;;1.50;;
2488;SDS011;1255;48.716;9.124;2024-02-26T00:07:03;2.00;;;1.80;;
2488;SDS011;1255;48.716;9.124;2024-02-26T00:09:30;1.70;;;1.50;;
2488;SDS011;1255;48.716;9.124;2024-02-26T00:11:57;2.25;;;1.45;;
2488;SDS011;1255;48.716;9.124;2024-02-26T00:14:24;1.85;;;1.38;;
2488;SDS011;1255;48.716;9.124;2024-02-26T00:16:51;2.33;;;1.60;;
2488;SDS011;1255;48.716;9.124;2024-02-26T00:19:18;3.13;;;1.92;;
2488;SDS011;1255;48.716;9.124;2024-02-26T00:21:44;1.50;;;1.40;;
2488;SDS011;1255;48.716;9.124;2024-02-26T00:24:12;2.25;;;1.90;;
2488;SDS011;1255;48.716;9.124;2024-02-26T00:26:39;1.65;;;1.42;;
2488;SDS011;1255;48.716;9.124;2024-02-26T00:29:06;1.85;;;1.40;;
2488;SDS011;1255;48.716;9.124;2024-02-26T00:31:33;2.25;;;1.55;;
2488;SDS011;1255;48.716;9.124;2024-02-26T00:34:00;1.77;;;1.40;;
2488;SDS011;1255;48.716;9.124;2024-02-26T00:36:26;1.42;;;1.33;;
2488;SDS011;1255;48.716;9.124;2024-02-26T00:38:53;1.92;;;1.67;;
2488;SDS011;1255;48.716;9.124;2024-02-26T00:41:21;2.35;;;2.10;;
2488;SDS011;1255;48.716;9.124;2024-02-26T00:43:48;2.90;;;1.95;;
2488;SDS011;1255;48.716;9.124;2024-02-26T00:46:15;1.77;;;1.63;;
2488;SDS011;1255;48.716;9.124;2024-02-26T00:48:41;3.22;;;1.95;;
2488;SDS011;1255;48.716;9.124;2024-02-26T00:51:08;1.92;;;1.45;;
2488;SDS011;1255;48.716;9.124;2024-02-26T00:53:35;2.30;;;1.75;;
2488;SDS011;1255;48.716;9.124;2024-02-26T00:56:02;1.17;;;1.08;;
2488;SDS011;1255;48.716;9.124;2024-02-26T00:58:30;3.00;;;1.75;;
2488;SDS011;1255;48.716;9.124;2024-02-26T01:00:57;2.05;;;1.40;;
2488;SDS011;1255;48.716;9.124;2024-02-26T01:03:24;2.45;;;1.67;;
2488;SDS011;1255;48.716;9.124;2024-02-26T01:05:51;1.85;;;1.20;;
2488;SDS011;1255;48.716;9.124;2024-02-26T01:08:17;1.30;;;1.20;;
2488;SDS011;1255;48.716;9.124;2024-02-26T01:10:44;1.80;;;1.40;;
2488;SDS011;1255;48.716;9.124;2024-02-26T01:13:11;2.72;;;1.50;;
2488;SDS011;1255;48.716;9.124;2024-02-26T01:15:39;1.58;;;1.42;;
2488;SDS011;1255;48.716;9.124;2024-02-26T01:18:06;2.45;;;1.60;;
2488;SDS011;1255;48.716;9.124;2024-02-26T01:20:32;1.52;;;1.42;;
2488;SDS011;1255;48.716;9.124;2024-02-26T01:22:59;2.15;;;1.42;;
2488;SDS011;1255;48.716;9.124;2024-02-26T01:25:26;1.40;;;1.30;;
2488;SDS011;1255;48.716;9.124;2024-02-26T01:27:52;1.55;;;1.45;;
2488;SDS011;1255;48.716;9.124;2024-02-26T01:30:19;1.45;;;1.30;;
2488;SDS011;1255;48.716;9.124;2024-02-26T01:32:47;4.93;;;1.70;;
2488;SDS011;1255;48.716;9.124;2024-02-26T01:35:14;1.92;;;1.80;;
2488;SDS011;1255;48.716;9.124;2024-02-26T01:37:40;1.95;;;1.75;;
2488;SDS011;1255;48.716;9.124;2024-02-26T01:40:08;1.42;;;1.33;;
2488;SDS011;1255;48.716;9.124;2024-02-26T01:42:37;2.08;;;1.65;;
2488;SDS011;1255;48.716;9.124;2024-02-26T01:45:06;3.35;;;1.58;;
2488;SDS011;1255;48.716;9.124;2024-02-26T01:47:40;2.42;;;1.80;;
2488;SDS011;1255;48.716;9.124;2024-02-26T01:50:09;1.70;;;1.60;;
2488;SDS011;1255;48.716;9.124;2024-02-26T01:52:36;2.13;;;1.30;;
2488;SDS011;1255;48.716;9.124;2024-02-26T01:55:04;1.40;;;1.30;;
2488;SDS011;1255;48.716;9.124;2024-02-26T01:57:31;1.35;;;1.25;;
2488;SDS011;1255;48.716;9.124;2024-02-26T01:59:58;1.50;;;1.25;;
2488;SDS011;1255;48.716;9.124;2024-02-26T02:02:25;1.30;;;1.20;;
2488;SDS011;1255;48.716;9.124;2024-02-26T02:04:52;1.30;;;1.20;;
2488;SDS011;1255;48.716;9.124;2024-02-26T02:07:20;1.50;;;1.40;;
2488;SDS011;1255;48.716;9.124;2024-02-26T02:09:49;1.95;;;0.90;;
2488;SDS011;1255;48.716;9.124;2024-02-26T02:12:16;1.15;;;1.05;;
2488;SDS011;1255;48.716;9.124;2024-02-26T02:14:42;1.25;;;1.13;;
2488;SDS011;1255;48.716;9.124;2024-02-26T02:17:09;1.40;;;1.08;;
2488;SDS011;1255;48.716;9.124;2024-02-26T02:19:36;1.13;;;1.02;;
2488;SDS011;1255;48.716;9.124;2024-02-26T02:22:04;1.45;;;1.10;;
2488;SDS011;1255;48.716;9.124;2024-02-26T02:24:31;1.40;;;1.08;;
2488;SDS011;1255;48.716;9.124;2024-02-26T02:26:58;1.20;;;1.10;;
2488;SDS011;1255;48.716;9.124;2024-02-26T02:29:25;1.25;;;1.05;;
2488;SDS011;1255;48.716;9.124;2024-02-26T02:31:52;1.10;;;1.00;;
2488;SDS011;1255;48.716;9.124;2024-02-26T02:34:20;1.10;;;1.00;;
2488;SDS011;1255;48.716;9.124;2024-02-26T02:36:51;2.40;;;1.50;;
2488;SDS011;1255;48.716;9.124;2024-02-26T02:39:20;1.65;;;1.00;;
2488;SDS011;1255;48.716;9.124;2024-02-26T02:41:47;1.27;;;1.10;;
2488;SDS011;1255;48.716;9.124;2024-02-26T02:44:14;1.20;;;1.02;;
2488;SDS011;1255;48.716;9.124;2024-02-26T02:46:40;1.15;;;0.88;;
2488;SDS011;1255;48.716;9.124;2024-02-26T02:49:08;1.50;;;0.90;;
2488;SDS011;1255;48.716;9.124;2024-02-26T02:51:35;1.35;;;1.10;;
2488;SDS011;1255;48.716;9.124;2024-02-26T02:54:02;1.27;;;1.08;;
2488;SDS011;1255;48.716;9.124;2024-02-26T02:56:30;1.85;;;1.13;;
2488;SDS011;1255;48.716;9.124;2024-02-26T02:58:57;1.02;;;0.93;;
2488;SDS011;1255;48.716;9.124;2024-02-26T03:01:23;1.20;;;0.95;;
2488;SDS011;1255;48.716;9.124;2024-02-26T03:03:50;0.90;;;0.80;;
2488;SDS011;1255;48.716;9.124;2024-02-26T03:06:17;1.10;;;0.95;;
2488;SDS011;1255;48.716;9.124;2024-02-26T03:08:44;1.95;;;0.88;;
2488;SDS011;1255;48.716;9.124;2024-02-26T03:11:12;0.80;;;0.70;;
2488;SDS011;1255;48.716;9.124;2024-02-26T03:13:41;1.00;;;0.80;;
2488;SDS011;1255;48.716;9.124;2024-02-26T03:16:08;1.23;;;0.80;;
2488;SDS011;1255;48.716;9.124;2024-02-26T03:18:35;1.30;;;1.10;;
2488;SDS011;1255;48.716;9.124;2024-02-26T03:21:02;0.90;;;0.80;;
2488;SDS011;1255;48.716;9.124;2024-02-26T03:23:29;1.15;;;1.05;;
2488;SDS011;1255;48.716;9.124;2024-02-26T03:25:57;1.20;;;1.00;;
2488;SDS011;1255;48.716;9.124;2024-02-26T03:28:24;1.00;;;0.85;;
2488;SDS011;1255;48.716;9.124;2024-02-26T03:30:52;0.90;;;0.80;;
2488;SDS011;1255;48.716;9.124;2024-02-26T03:33:18;1.08;;;0.80;;
2488;SDS011;1255;48.716;9.124;2024-02-26T03:35:45;0.90;;;0.73;;
2488;SDS011;1255;48.716;9.124;2024-02-26T03:38:12;0.85;;;0.80;;
2488;SDS011;1255;48.716;9.124;2024-02-26T03:40:39;0.80;;;0.70;;
2488;SDS011;1255;48.716;9.124;2024-02-26T03:43:05;1.25;;;0.90;;
2488;SDS011;1255;48.716;9.124;2024-02-26T03:45:32;1.52;;;1.00;;
2488;SDS011;1255;48.716;9.124;2024-02-26T03:48:00;1.10;;;0.80;;
2488;SDS011;1255;48.716;9.124;2024-02-26T03:50:27;1.02;;;0.90;;
2488;SDS011;1255;48.716;9.124;2024-02-26T03:52:53;1.20;;;0.90;;
2488;SDS011;1255;48.716;9.124;2024-02-26T03:55:22;1.27;;;1.00;;
2488;SDS011;1255;48.716;9.124;2024-02-26T03:57:50;0.90;;;0.80;;
2488;SDS011;1255;48.716;9.124;2024-02-26T04:00:17;1.00;;;0.80;;
2488;SDS011;1255;48.716;9.124;2024-02-26T04:02:44;1.58;;;1.02;;
2488;SDS011;1255;48.716;9.124;2024-02-26T04:05:12;1.65;;;0.90;;
2488;SDS011;1255;48.716;9.124;2024-02-26T04:07:39;1.10;;;1.00;;
2488;SDS011;1255;48.716;9.124;2024-02-26T04:10:08;1.10;;;1.00;;
2488;SDS011;1255;48.716;9.124;2024-02-26T04:12:36;1.00;;;0.90;;
2488;SDS011;1255;48.716;9.124;2024-02-26T04:15:05;1.05;;;0.95;;
2488;SDS011;1255;48.716;9.124;2024-02-26T04:17:32;0.93;;;0.82;;
2488;SDS011;1255;48.716;9.124;2024-02-26T04:19:59;1.10;;;1.00;;
2488;SDS011;1255;48.716;9.124;2024-02-26T04:22:27;0.95;;;0.82;;
2488;SDS011;1255;48.716;9.124;2024-02-26T04:24:54;1.00;;;0.90;;
2488;SDS011;1255;48.716;9.124;2024-02-26T04:27:20;1.40;;;1.30;;
2488;SDS011;1255;48.716;9.124;2024-02-26T04:29:47;1.00;;;0.90;;
2488;SDS011;1255;48.716;9.124;2024-02-26T04:32:14;1.65;;;1.25;;
2488;SDS011;1255;48.716;9.124;2024-02-26T04:34:41;1.77;;;1.50;;
2488;SDS011;1255;48.716;9.124;2024-02-26T04:37:08;2.20;;;1.67;;
2488;SDS011;1255;48.716;9.124;2024-02-26T04:39:36;1.40;;;1.13;;
2488;SDS011;1255;48.716;9.124;2024-02-26T04:42:03;1.50;;;1.40;;
2488;SDS011;1255;48.716;9.124;2024-02-26T04:44:30;1.17;;;1.08;;
2488;SDS011;1255;48.716;9.124;2024-02-26T04:46:56;1.30;;;1.20;;
2488;SDS011;1255;48.716;9.124;2024-02-26T04:49:23;1.75;;;1.50;;
2488;SDS011;1255;48.716;9.124;2024-02-26T04:51:50;1.95;;;1.60;;
2488;SDS011;1255;48.716;9.124;2024-02-26T04:54:16;2.45;;;1.80;;
2488;SDS011;1255;48.716;9.124;2024-02-26T04:56:44;1.58;;;1.35;;
2488;SDS011;1255;48.716;9.124;2024-02-26T04:59:11;1.30;;;1.20;;
2488;SDS011;1255;48.716;9.124;2024-02-26T05:01:39;1.77;;;1.30;;
2488;SDS011;1255;48.716;9.124;2024-02-26T05:04:06;2.03;;;1.48;;
2488;SDS011;1255;48.716;9.124;2024-02-26T05:06:33;1.75;;;1.55;;
2488;SDS011;1255;48.716;9.124;2024-02-26T05:09:00;1.85;;;1.63;;
2488;SDS011;1255;48.716;9.124;2024-02-26T05:11:26;1.95;;;1.42;;
2488;SDS011;1255;48.716;9.124;2024-02-26T05:13:54;2.00;;;1.80;;
2488;SDS011;1255;48.716;9.124;2024-02-26T05:16:21;1.30;;;1.20;;
2488;SDS011;1255;48.716;9.124;2024-02-26T05:18:49;1.65;;;1.55;;
2488;SDS011;1255;48.716;9.124;2024-02-26T05:21:16;1.30;;;1.13;;
2488;SDS011;1255;48.716;9.124;2024-02-26T05:23:43;1.52;;;1.42;;
2488;SDS011;1255;48.716;9.124;2024-02-26T05:26:10;1.98;;;1.40;;
2488;SDS011;1255;48.716;9.124;2024-02-26T05:28:37;1.60;;;1.50;;
2488;SDS011;1255;48.716;9.124;2024-02-26T05:31:05;2.03;;;1.65;;
2488;SDS011;1255;48.716;9.124;2024-02-26T05:33:32;2.53;;;1.95;;
2488;SDS011;1255;48.716;9.124;2024-02-26T05:35:59;2.17;;;1.38;;
2488;SDS011;1255;48.716;9.124;2024-02-26T05:38:29;1.40;;;1.20;;
2488;SDS011;1255;48.716;9.124;2024-02-26T05:40:56;1.73;;;1.63;;
2488;SDS011;1255;48.716;9.124;2024-02-26T05:43:23;2.00;;;1.35;;
2488;SDS011;1255;48.716;9.124;2024-02-26T05:45:50;2.00;;;1.40;;
2488;SDS011;1255;48.716;9.124;2024-02-26T05:48:18;1.50;;;1.40;;
2488;SDS011;1255;48.716;9.124;2024-02-26T05:50:45;2.30;;;1.48;;
2488;SDS011;1255;48.716;9.124;2024-02-26T05:53:12;3.05;;;1.35;;
2488;SDS011;1255;48.716;9.124;2024-02-26T05:55:39;1.33;;;1.17;;
2488;SDS011;1255;48.716;9.124;2024-02-26T05:58:05;1.52;;;1.42;;
2488;SDS011;1255;48.716;9.124;2024-02-26T06:00:32;1.30;;;1.20;;
2488;SDS011;1255;48.716;9.124;2024-02-26T06:02:59;1.75;;;1.55;;
2488;SDS011;1255;48.716;9.124;2024-02-26T06:05:28;2.70;;;1.90;;
2488;SDS011;1255;48.716;9.124;2024-02-26T06:07:55;1.63;;;1.40;;
2488;SDS011;1255;48.716;9.124;2024-02-26T06:10:22;3.30;;;1.60;;
2488;SDS011;1255;48.716;9.124;2024-02-26T06:12:48;2.72;;;1.80;;
2488;SDS011;1255;48.716;9.124;2024-02-26T06:15:15;1.80;;;1.23;;
2488;SDS011;1255;48.716;9.124;2024-02-26T06:17:42;1.60;;;1.30;;
2488;SDS011;1255;48.716;9.124;2024-02-26T06:20:09;2.38;;;1.77;;
2488;SDS011;1255;48.716;9.124;2024-02-26T06:22:39;1.90;;;1.20;;
2488;SDS011;1255;48.716;9.124;2024-02-26T06:25:07;1.30;;;1.20;;
2488;SDS011;1255;48.716;9.124;2024-02-26T06:27:34;1.38;;;1.20;;
2488;SDS011;1255;48.716;9.124;2024-02-26T06:30:01;1.73;;;1.30;;
2488;SDS011;1255;48.716;9.124;2024-02-26T06:32:28;1.65;;;1.33;;
2488;SDS011;1255;48.716;9.124;2024-02-26T06:34:54;1.10;;;1.00;;
2488;SDS011;1255;48.716;9.124;2024-02-26T06:37:21;2.53;;;1.75;;
2488;SDS011;1255;48.716;9.124;2024-02-26T06:39:49;2.38;;;1.70;;
2488;SDS011;1255;48.716;9.124;2024-02-26T06:42:17;1.27;;;1.13;;
2488;SDS011;1255;48.716;9.124;2024-02-26T06:44:44;1.80;;;1.45;;
2488;SDS011;1255;48.716;9.124;2024-02-26T06:47:10;1.15;;;1.05;;
2488;SDS011;1255;48.716;9.124;2024-02-26T06:49:37;2.25;;;1.27;;
2488;SDS011;1255;48.716;9.124;2024-02-26T06:52:04;1.85;;;1.65;;
2488;SDS011;1255;48.716;9.124;2024-02-26T06:54:31;3.50;;;1.45;;
2488;SDS011;1255;48.716;9.124;2024-02-26T06:57:00;1.10;;;1.00;;
2488;SDS011;1255;48.716;9.124;2024-02-26T06:59:26;1.55;;;1.45;;
2488;SDS011;1255;48.716;9.124;2024-02-26T07:01:53;2.92;;;2.03;;
2488;SDS011;1255;48.716;9.124;2024-02-26T07:04:22;2.60;;;1.80;;
2488;SDS011;1255;48.716;9.124;2024-02-26T07:06:49;1.75;;;1.65;;
2488;SDS011;1255;48.716;9.124;2024-02-26T07:09:16;1.50;;;1.40;;
2488;SDS011;1255;48.716;9.124;2024-02-26T07:11:43;1.80;;;1.50;;
2488;SDS011;1255;48.716;9.124;2024-02-26T07:14:12;2.88;;;1.55;;
2488;SDS011;1255;48.716;9.124;2024-02-26T07:16:39;1.35;;;1.17;;
2488;SDS011;1255;48.716;9.124;2024-02-26T07:19:05;2.50;;;1.50;;
2488;SDS011;1255;48.716;9.124;2024-02-26T07:21:32;4.03;;;1.50;;
2488;SDS011;1255;48.716;9.124;2024-02-26T07:23:59;1.88;;;1.38;;
2488;SDS011;1255;48.716;9.124;2024-02-26T07:26:25;1.88;;;1.60;;
2488;SDS011;1255;48.716;9.124;2024-02-26T07:28:54;1.70;;;1.30;;
2488;SDS011;1255;48.716;9.124;2024-02-26T07:31:23;2.17;;;1.30;;
2488;SDS011;1255;48.716;9.124;2024-02-26T07:33:49;1.33;;;1.23;;
2488;SDS011;1255;48.716;9.124;2024-02-26T07:36:16;2.58;;;1.70;;
2488;SDS011;1255;48.716;9.124;2024-02-26T07:38:43;1.60;;;1.10;;
2488;SDS011;1255;48.716;9.124;2024-02-26T07:41:09;1.70;;;1.60;;
2488;SDS011;1255;48.716;9.124;2024-02-26T07:43:37;1.30;;;1.17;;
2488;SDS011;1255;48.716;9.124;2024-02-26T07:46:04;1.30;;;1.20;;
2488;SDS011;1255;48.716;9.124;2024-02-26T07:48:32;1.23;;;0.95;;
2488;SDS011;1255;48.716;9.124;2024-02-26T07:50:59;1.17;;;1.05;;
2488;SDS011;1255;48.716;9.124;2024-02-26T07:53:28;1.17;;;1.08;;
2488;SDS011;1255;48.716;9.124;2024-02-26T07:55:54;1.73;;;1.30;;
2488;SDS011;1255;48.716;9.124;2024-02-26T07:58:21;1.30;;;1.20;;
2488;SDS011;1255;48.716;9.124;2024-02-26T08:00:49;1.40;;;1.30;;
2488;SDS011;1255;48.716;9.124;2024-02-26T08:03:16;1.10;;;1.00;;
2488;SDS011;1255;48.716;9.124;2024-02-26T08:05:44;2.00;;;1.50;;
2488;SDS011;1255;48.716;9.124;2024-02-26T08:08:11;1.67;;;1.50;;
2488;SDS011;1255;48.716;9.124;2024-02-26T08:10:37;2.25;;;1.88;;
2488;SDS011;1255;48.716;9.124;2024-02-26T08:13:04;3.60;;;1.73;;
2488;SDS011;1255;48.716;9.124;2024-02-26T08:15:31;1.60;;;1.50;;
2488;SDS011;1255;48.716;9.124;2024-02-26T08:17:57;3.35;;;1.70;;
2488;SDS011;1255;48.716;9.124;2024-02-26T08:20:25;2.50;;;2.10;;
2488;SDS011;1255;48.716;9.124;2024-02-26T08:22:53;1.83;;;1.67;;
2488;SDS011;1255;48.716;9.124;2024-02-26T08:25:20;1.73;;;1.63;;
2488;SDS011;1255;48.716;9.124;2024-02-26T08:27:46;2.35;;;2.15;;
2488;SDS011;1255;48.716;9.124;2024-02-26T08:30:13;1.60;;;1.50;;
2488;SDS011;1255;48.716;9.124;2024-02-26T08:32:42;2.15;;;1.95;;
2488;SDS011;1255;48.716;9.124;2024-02-26T08:35:09;2.22;;;2.03;;
2488;SDS011;1255;48.716;9.124;2024-02-26T08:37:36;3.10;;;1.65;;
2488;SDS011;1255;48.716;9.124;2024-02-26T08:40:04;8.13;;;1.95;;
2488;SDS011;1255;48.716;9.124;2024-02-26T08:42:32;1.80;;;1.70;;
2488;SDS011;1255;48.716;9.124;2024-02-26T08:44:59;1.75;;;1.65;;
2488;SDS011;1255;48.716;9.124;2024-02-26T08:47:26;3.17;;;1.70;;
2488;SDS011;1255;48.716;9.124;2024-02-26T08:49:53;2.10;;;1.90;;
2488;SDS011;1255;48.716;9.124;2024-02-26T08:52:20;1.83;;;1.70;;
2488;SDS011;1255;48.716;9.124;2024-02-26T08:54:46;3.30;;;2.10;;
2488;SDS011;1255;48.716;9.124;2024-02-26T08:57:15;1.98;;;1.60;;
2488;SDS011;1255;48.716;9.124;2024-02-26T08:59:41;2.35;;;1.80;;
2488;SDS011;1255;48.716;9.124;2024-02-26T09:02:08;4.75;;;1.88;;
2488;SDS011;1255;48.716;9.124;2024-02-26T09:04:35;2.35;;;1.55;;
2488;SDS011;1255;48.716;9.124;2024-02-26T09:07:02;2.30;;;1.50;;
2488;SDS011;1255;48.716;9.124;2024-02-26T09:09:29;2.05;;;1.33;;
2488;SDS011;1255;48.716;9.124;2024-02-26T09:11:55;1.85;;;1.63;;
2488;SDS011;1255;48.716;9.124;2024-02-26T09:14:23;1.77;;;1.60;;
2488;SDS011;1255;48.716;9.124;2024-02-26T09:16:50;1.65;;;1.50;;
2488;SDS011;1255;48.716;9.124;2024-02-26T09:19:17;2.60;;;1.90;;
2488;SDS011;1255;48.716;9.124;2024-02-26T09:21:44;2.60;;;1.60;;
2488;SDS011;1255;48.716;9.124;2024-02-26T09:24:11;2.05;;;1.63;;
2488;SDS011;1255;48.716;9.124;2024-02-26T09:26:38;1.73;;;1.55;;
2488;SDS011;1255;48.716;9.124;2024-02-26T09:29:05;1.73;;;1.50;;
2488;SDS011;1255;48.716;9.124;2024-02-26T09:31:34;2.58;;;1.83;;
2488;SDS011;1255;48.716;9.124;2024-02-26T09:34:01;1.92;;;1.40;;
2488;SDS011;1255;48.716;9.124;2024-02-26T09:36:28;1.65;;;1.55;;
2488;SDS011;1255;48.716;9.124;2024-02-26T09:38:54;2.75;;;1.65;;
2488;SDS011;1255;48.716;9.124;2024-02-26T09:41:21;2.22;;;1.80;;
2488;SDS011;1255;48.716;9.124;2024-02-26T09:43:48;2.15;;;1.95;;
2488;SDS011;1255;48.716;9.124;2024-02-26T09:46:16;1.63;;;1.52;;
2488;SDS011;1255;48.716;9.124;2024-02-26T09:48:46;3.20;;;1.55;;
2488;SDS011;1255;48.716;9.124;2024-02-26T09:51:15;2.67;;;1.90;;
2488;SDS011;1255;48.716;9.124;2024-02-26T09:53:43;1.70;;;1.60;;
2488;SDS011;1255;48.716;9.124;2024-02-26T09:56:11;1.50;;;1.40;;
2488;SDS011;1255;48.716;9.124;2024-02-26T09:58:37;1.45;;;1.35;;
2488;SDS011;1255;48.716;9.124;2024-02-26T10:01:07;2.08;;;1.45;;
2488;SDS011;1255;48.716;9.124;2024-02-26T10:03:38;3.10;;;1.42;;
2488;SDS011;1255;48.716;9.124;2024-02-26T10:06:08;1.60;;;1.50;;
2488;SDS011;1255;48.716;9.124;2024-02-26T10:08:35;2.50;;;1.80;;
2488;SDS011;1255;48.716;9.124;2024-02-26T10:11:03;2.97;;;1.87;;
2488;SDS011;1255;48.716;9.124;2024-02-26T10:13:31;1.60;;;1.50;;
2488;SDS011;1255;48.716;9.124;2024-02-26T10:15:58;1.73;;;1.47;;
2488;SDS011;1255;48.716;9.124;2024-02-26T10:18:24;1.70;;;1.20;;
2488;SDS011;1255;48.716;9.124;2024-02-26T10:21:00;2.57;;;1.70;;
2488;SDS011;1255;48.716;9.124;2024-02-26T10:23:28;1.27;;;1.17;;
2488;SDS011;1255;48.716;9.124;2024-02-26T10:25:55;1.93;;;1.70;;
2488;SDS011;1255;48.716;9.124;2024-02-26T10:28:22;1.50;;;1.30;;
2488;SDS011;1255;48.716;9.124;2024-02-26T10:30:50;1.40;;;1.30;;
2488;SDS011;1255;48.716;9.124;2024-02-26T10:33:18;3.03;;;1.90;;
2488;SDS011;1255;48.716;9.124;2024-02-26T10:35:45;2.33;;;1.90;;
2488;SDS011;1255;48.716;9.124;2024-02-26T10:38:12;2.90;;;2.30;;
2488;SDS011;1255;48.716;9.124;2024-02-26T10:40:43;2.27;;;2.00;;
2488;SDS011;1255;48.716;9.124;2024-02-26T10:43:10;2.40;;;2.20;;
2488;SDS011;1255;48.716;9.124;2024-02-26T10:45:38;3.90;;;2.33;;
2488;SDS011;1255;48.716;9.124;2024-02-26T10:48:07;2.10;;;1.90;;
2488;SDS011;1255;48.716;9.124;2024-02-26T10:50:36;2.33;;;1.70;;
2488;SDS011;1255;48.716;9.124;2024-02-26T10:53:04;2.20;;;2.00;;
2488;SDS011;1255;48.716;9.124;2024-02-26T10:55:40;2.33;;;2.07;;
2488;SDS011;1255;48.716;9.124;2024-02-26T10:58:08;3.03;;;2.33;;
2488;SDS011;1255;48.716;9.124;2024-02-26T11:00:36;2.60;;;2.07;;
2488;SDS011;1255;48.716;9.124;2024-02-26T11:03:05;3.47;;;2.13;;
2488;SDS011;1255;48.716;9.124;2024-02-26T11:05:34;2.33;;;2.13;;
2488;SDS011;1255;48.716;9.124;2024-02-26T11:08:01;3.90;;;2.00;;
2488;SDS011;1255;48.716;9.124;2024-02-26T11:10:30;2.57;;;2.10;;
2488;SDS011;1255;48.716;9.124;2024-02-26T11:12:57;2.20;;;2.00;;
2488;SDS011;1255;48.716;9.124;2024-02-26T11:15:28;2.20;;;1.80;;
2488;SDS011;1255;48.716;9.124;2024-02-26T11:17:58;2.33;;;2.00;;
2488;SDS011;1255;48.716;9.124;2024-02-26T11:20:25;2.33;;;1.77;;
2488;SDS011;1255;48.716;9.124;2024-02-26T11:22:55;2.13;;;1.93;;
2488;SDS011;1255;48.716;9.124;2024-02-26T11:25:22;1.93;;;1.73;;
2488;SDS011;1255;48.716;9.124;2024-02-26T11:27:50;2.63;;;1.87;;
2488;SDS011;1255;48.716;9.124;2024-02-26T11:30:19;2.70;;;1.47;;
2488;SDS011;1255;48.716;9.124;2024-02-26T11:32:49;2.17;;;1.87;;
2488;SDS011;1255;48.716;9.124;2024-02-26T11:35:17;1.57;;;1.47;;
2488;SDS011;1255;48.716;9.124;2024-02-26T11:37:51;5.60;;;1.70;;
2488;SDS011;1255;48.716;9.124;2024-02-26T11:40:19;1.63;;;1.47;;
2488;SDS011;1255;48.716;9.124;2024-02-26T11:42:46;2.07;;;1.60;;
2488;SDS011;1255;48.716;9.124;2024-02-26T11:48:21;1.90;;;1.50;;
2488;SDS011;1255;48.716;9.124;2024-02-26T11:50:49;1.60;;;1.30;;
2488;SDS011;1255;48.716;9.124;2024-02-26T11:53:20;2.00;;;1.80;;
2488;SDS011;1255;48.716;9.124;2024-02-26T11:55:48;2.27;;;1.53;;
2488;SDS011;1255;48.716;9.124;2024-02-26T11:58:38;1.67;;;1.50;;
2488;SDS011;1255;48.716;9.124;2024-02-26T12:01:05;1.60;;;1.50;;
2488;SDS011;1255;48.716;9.124;2024-02-26T12:03:34;1.60;;;1.30;;
2488;SDS011;1255;48.716;9.124;2024-02-26T12:06:01;1.93;;;1.57;;
2488;SDS011;1255;48.716;9.124;2024-02-26T12:08:28;2.63;;;1.60;;
2488;SDS011;1255;48.716;9.124;2024-02-26T12:10:55;2.13;;;1.37;;
2488;SDS011;1255;48.716;9.124;2024-02-26T12:13:25;1.67;;;1.57;;
2488;SDS011;1255;48.716;9.124;2024-02-26T12:15:56;1.60;;;1.50;;
2488;SDS011;1255;48.716;9.124;2024-02-26T12:18:24;2.33;;;1.50;;
2488;SDS011;1255;48.716;9.124;2024-02-26T12:20:59;2.20;;;1.17;;
2488;SDS011;1255;48.716;9.124;2024-02-26T12:23:26;1.63;;;1.30;;
2488;SDS011;1255;48.716;9.124;2024-02-26T12:25:53;1.73;;;1.50;;
2488;SDS011;1255;48.716;9.124;2024-02-26T12:28:27;1.97;;;1.77;;
2488;SDS011;1255;48.716;9.124;2024-02-26T12:30:53;1.40;;;1.30;;
2488;SDS011;1255;48.716;9.124;2024-02-26T12:33:20;2.10;;;1.33;;
2488;SDS011;1255;48.716;9.124;2024-02-26T12:35:47;1.10;;;1.00;;
2488;SDS011;1255;48.716;9.124;2024-02-26T12:38:17;2.10;;;1.57;;
2488;SDS011;1255;48.716;9.124;2024-02-26T12:40:44;2.03;;;1.50;;
2488;SDS011;1255;48.716;9.124;2024-02-26T12:43:11;1.60;;;1.50;;
2488;SDS011;1255;48.716;9.124;2024-02-26T12:45:38;1.70;;;1.30;;
2488;SDS011;1255;48.716;9.124;2024-02-26T12:48:06;1.93;;;1.20;;
2488;SDS011;1255;48.716;9.124;2024-02-26T12:50:33;1.20;;;1.10;;
2488;SDS011;1255;48.716;9.124;2024-02-26T12:53:00;1.50;;;1.40;;
2488;SDS011;1255;48.716;9.124;2024-02-26T12:55:29;1.40;;;1.20;;
2488;SDS011;1255;48.716;9.124;2024-02-26T12:57:59;2.60;;;1.90;;
2488;SDS011;1255;48.716;9.124;2024-02-26T13:00:26;1.40;;;1.30;;
2488;SDS011;1255;48.716;9.124;2024-02-26T13:02:54;1.83;;;1.53;;
2488;SDS011;1255;48.716;9.124;2024-02-26T13:05:22;1.40;;;1.30;;
2488;SDS011;1255;48.716;9.124;2024-02-26T13:07:49;1.80;;;1.60;;
2488;SDS011;1255;48.716;9.124;2024-02-26T13:10:18;1.47;;;1.37;;
2488;SDS011;1255;48.716;9.124;2024-02-26T13:12:47;1.27;;;1.10;;
2488;SDS011;1255;48.716;9.124;2024-02-26T13:15:16;1.60;;;1.50;;
2488;SDS011;1255;48.716;9.124;2024-02-26T13:17:43;5.60;;;1.60;;
2488;SDS011;1255;48.716;9.124;2024-02-26T13:20:10;1.30;;;1.07;;
2488;SDS011;1255;48.716;9.124;2024-02-26T13:22:37;1.00;;;0.90;;
2488;SDS011;1255;48.716;9.124;2024-02-26T13:25:04;1.07;;;0.97;;
2488;SDS011;1255;48.716;9.124;2024-02-26T13:27:32;1.27;;;1.17;;
2488;SDS011;1255;48.716;9.124;2024-02-26T13:30:08;1.00;;;0.80;;
2488;SDS011;1255;48.716;9.124;2024-02-26T13:32:37;1.13;;;1.03;;
2488;SDS011;1255;48.716;9.124;2024-02-26T13:35:05;1.50;;;1.20;;
2488;SDS011;1255;48.716;9.124;2024-02-26T13:37:33;1.20;;;0.93;;
2488;SDS011;1255;48.716;9.124;2024-02-26T13:40:00;1.00;;;0.90;;
2488;SDS011;1255;48.716;9.124;2024-02-26T13:42:30;0.90;;;0.80;;
2488;SDS011;1255;48.716;9.124;2024-02-26T13:44:57;1.27;;;1.10;;
2488;SDS011;1255;48.716;9.124;2024-02-26T13:47:26;2.00;;;1.37;;
2488;SDS011;1255;48.716;9.124;2024-02-26T13:49:52;1.33;;;1.23;;
2488;SDS011;1255;48.716;9.124;2024-02-26T13:52:19;1.40;;;1.13;;
2488;SDS011;1255;48.716;9.124;2024-02-26T13:54:46;1.77;;;1.30;;
2488;SDS011;1255;48.716;9.124;2024-02-26T13:57:13;1.00;;;0.90;;
2488;SDS011;1255;48.716;9.124;2024-02-26T13:59:40;1.00;;;0.90;;
2488;SDS011;1255;48.716;9.124;2024-02-26T14:02:07;0.80;;;0.70;;
2488;SDS011;1255;48.716;9.124;2024-02-26T14:04:35;2.20;;;1.00;;
2488;SDS011;1255;48.716;9.124;2024-02-26T14:07:03;0.90;;;0.70;;
2488;SDS011;1255;48.716;9.124;2024-02-26T14:09:30;1.50;;;1.00;;
2488;SDS011;1255;48.716;9.124;2024-02-26T14:11:57;0.90;;;0.80;;
2488;SDS011;1255;48.716;9.124;2024-02-26T14:14:24;0.80;;;0.67;;
2488;SDS011;1255;48.716;9.124;2024-02-26T14:16:51;0.80;;;0.70;;
2488;SDS011;1255;48.716;9.124;2024-02-26T14:19:18;0.80;;;0.70;;
2488;SDS011;1255;48.716;9.124;2024-02-26T14:21:46;1.37;;;1.20;;
2488;SDS011;1255;48.716;9.124;2024-02-26T14:24:12;1.00;;;0.83;;
2488;SDS011;1255;48.716;9.124;2024-02-26T14:26:40;2.00;;;1.17;;
2488;SDS011;1255;48.716;9.124;2024-02-26T14:29:07;1.17;;;0.93;;
2488;SDS011;1255;48.716;9.124;2024-02-26T14:31:34;1.37;;;1.07;;
2488;SDS011;1255;48.716;9.124;2024-02-26T14:34:01;1.77;;;1.37;;
2488;SDS011;1255;48.716;9.124;2024-02-26T14:36:28;1.57;;;1.37;;
2488;SDS011;1255;48.716;9.124;2024-02-26T14:38:56;2.23;;;1.63;;
2488;SDS011;1255;48.716;9.124;2024-02-26T14:41:23;3.23;;;1.67;;
2488;SDS011;1255;48.716;9.124;2024-02-26T14:43:50;2.10;;;1.57;;
2488;SDS011;1255;48.716;9.124;2024-02-26T14:46:19;5.13;;;1.50;;
2488;SDS011;1255;48.716;9.124;2024-02-26T14:48:46;2.33;;;1.70;;
2488;SDS011;1255;48.716;9.124;2024-02-26T14:51:13;2.03;;;1.20;;
2488;SDS011;1255;48.716;9.124;2024-02-26T14:53:39;1.00;;;0.90;;
2488;SDS011;1255;48.716;9.124;2024-02-26T14:56:08;1.20;;;1.10;;
2488;SDS011;1255;48.716;9.124;2024-02-26T14:58:35;1.23;;;1.13;;
2488;SDS011;1255;48.716;9.124;2024-02-26T15:01:03;1.20;;;1.10;;
2488;SDS011;1255;48.716;9.124;2024-02-26T15:03:30;1.13;;;1.03;;
2488;SDS011;1255;48.716;9.124;2024-02-26T15:05:57;1.80;;;1.30;;
2488;SDS011;1255;48.716;9.124;2024-02-26T15:08:24;1.03;;;0.93;;
2488;SDS011;1255;48.716;9.124;2024-02-26T15:10:50;1.80;;;1.00;;
2488;SDS011;1255;48.716;9.124;2024-02-26T15:13:19;1.20;;;1.10;;
2488;SDS011;1255;48.716;9.124;2024-02-26T15:15:46;1.10;;;0.90;;
2488;SDS011;1255;48.716;9.124;2024-02-26T15:18:13;1.03;;;0.90;;
2488;SDS011;1255;48.716;9.124;2024-02-26T15:20:41;1.73;;;1.03;;